YYC weather

Calgary International Airport
Calgary, Alberta, Canada

Public forecast

Using degrees Celsius for public forecast. Weather courtesy of forecast.io.

METAR (pilot weather report)

Retrieved 2019/03/23 01:00 UTC (60 minutes ago):

CYYC 230100Z 13006KT 20SM FEW160 FEW220 BKN260 12/03 A2981 RMK AC1CI2CI3 AC TR SLP127 DENSITY ALT 4200FT

TAF (pilot weather forecast)

Forecast is more than 12 hours old.

Retrieved 2019/03/22 00:50 UTC (1 day ago):

TAF CYYC 222347Z 2300/2324 12006KT P6SM SKC BECMG 2308/2310 33005KT FM231400 36008KT P6SM FEW008 SCT025 TEMPO 2314/2319 2SM BR BKN008 RMK NXT FCST BY 230300Z